LJPZ/POW METAR and TAF weather

Enter ICAO airport designator
Station Type Date Time Source
LJPZ METAR 2021/01/20 23:00 UTC NOAA

LJPZ 202300Z AUTO 11001KT 1000 R15/P2000 BR BKN070/// 04/04 Q1018


Station Type Date Time Source
LJPZ Decoded METAR 2021/01/20 23:00 UTC NOAA

Portoroz, Slovenia (LJPZ) 45-31N 013-34E
Jan 20, 2021 - 06:00 PM EST / 2021.01.20 2300 UTC
Wind: from the ESE (110 degrees) at 1 MPH (1 KT):0
Visibility: less than 1 mile:0
Sky conditions: mostly cloudy
Weather: mist
Temperature: 39 F (4 C)
Dew Point: 39 F (4 C)
Relative Humidity: 100%
Pressure (altimeter): 30.06 in. Hg (1018 hPa)
ob: LJPZ 202300Z AUTO 11001KT 1000 R15/P2000 BR BKN070/// 04/04 Q1018
cycle: 23

Station Type Date Time Source
LJPZ TAF 2020/09/27 12:21 UTC NOAA

TAF TAF LJPZ 271100Z 2712/2821 30003KT 9999 FEW050 PROB30
TEMPO 2712/2718 -SHRA SCT040TCU BKN070
BECMG 2718/2720 06012G25KT RA

Example: see airport list